sensor_id;sensor_type;location;lat;lon;timestamp;P1;durP1;ratioP1;P2;durP2;ratioP2
10721;SDS011;5412;59.450;18.124;2023-04-25T00:01:45;2.60;;;2.40;;
10721;SDS011;5412;59.450;18.124;2023-04-25T00:04:11;3.47;;;2.57;;
10721;SDS011;5412;59.450;18.124;2023-04-25T00:06:37;3.73;;;2.77;;
10721;SDS011;5412;59.450;18.124;2023-04-25T00:09:05;3.70;;;2.77;;
10721;SDS011;5412;59.450;18.124;2023-04-25T00:11:35;3.73;;;2.70;;
10721;SDS011;5412;59.450;18.124;2023-04-25T00:14:01;7.00;;;2.60;;
10721;SDS011;5412;59.450;18.124;2023-04-25T00:16:28;4.20;;;2.80;;
10721;SDS011;5412;59.450;18.124;2023-04-25T00:18:55;3.27;;;2.50;;
10721;SDS011;5412;59.450;18.124;2023-04-25T00:21:21;4.87;;;2.80;;
10721;SDS011;5412;59.450;18.124;2023-04-25T00:23:49;3.77;;;2.70;;
10721;SDS011;5412;59.450;18.124;2023-04-25T00:26:15;3.30;;;2.70;;
10721;SDS011;5412;59.450;18.124;2023-04-25T00:28:41;5.33;;;2.43;;
10721;SDS011;5412;59.450;18.124;2023-04-25T00:31:06;4.47;;;2.70;;
10721;SDS011;5412;59.450;18.124;2023-04-25T00:33:32;3.27;;;2.93;;
10721;SDS011;5412;59.450;18.124;2023-04-25T00:35:58;5.17;;;2.67;;
10721;SDS011;5412;59.450;18.124;2023-04-25T00:38:23;4.03;;;2.80;;
10721;SDS011;5412;59.450;18.124;2023-04-25T00:40:49;3.83;;;2.90;;
10721;SDS011;5412;59.450;18.124;2023-04-25T00:43:15;3.60;;;3.23;;
10721;SDS011;5412;59.450;18.124;2023-04-25T00:45:41;3.73;;;2.87;;
10721;SDS011;5412;59.450;18.124;2023-04-25T00:48:08;4.13;;;3.00;;
10721;SDS011;5412;59.450;18.124;2023-04-25T00:50:34;4.13;;;3.00;;
10721;SDS011;5412;59.450;18.124;2023-04-25T00:53:01;2.93;;;2.40;;
10721;SDS011;5412;59.450;18.124;2023-04-25T00:55:28;3.30;;;3.00;;
10721;SDS011;5412;59.450;18.124;2023-04-25T00:57:56;10.23;;;3.10;;
10721;SDS011;5412;59.450;18.124;2023-04-25T01:00:22;3.63;;;2.70;;
10721;SDS011;5412;59.450;18.124;2023-04-25T01:02:48;2.77;;;2.50;;
10721;SDS011;5412;59.450;18.124;2023-04-25T01:05:14;3.13;;;2.83;;
10721;SDS011;5412;59.450;18.124;2023-04-25T01:07:40;3.73;;;2.37;;
10721;SDS011;5412;59.450;18.124;2023-04-25T01:10:06;3.03;;;2.70;;
10721;SDS011;5412;59.450;18.124;2023-04-25T01:12:33;2.87;;;2.67;;
10721;SDS011;5412;59.450;18.124;2023-04-25T01:14:59;3.20;;;2.90;;
10721;SDS011;5412;59.450;18.124;2023-04-25T01:17:24;3.20;;;2.63;;
10721;SDS011;5412;59.450;18.124;2023-04-25T01:19:50;3.17;;;2.37;;
10721;SDS011;5412;59.450;18.124;2023-04-25T01:22:16;3.00;;;2.60;;
10721;SDS011;5412;59.450;18.124;2023-04-25T01:24:42;4.33;;;2.73;;
10721;SDS011;5412;59.450;18.124;2023-04-25T01:27:09;9.20;;;2.57;;
10721;SDS011;5412;59.450;18.124;2023-04-25T01:29:36;6.20;;;2.83;;
10721;SDS011;5412;59.450;18.124;2023-04-25T01:32:02;3.83;;;2.53;;
10721;SDS011;5412;59.450;18.124;2023-04-25T01:34:28;3.57;;;2.60;;
10721;SDS011;5412;59.450;18.124;2023-04-25T01:36:54;3.07;;;2.53;;
10721;SDS011;5412;59.450;18.124;2023-04-25T01:39:20;3.07;;;2.60;;
10721;SDS011;5412;59.450;18.124;2023-04-25T01:41:46;3.23;;;2.73;;
10721;SDS011;5412;59.450;18.124;2023-04-25T01:44:13;2.43;;;2.23;;
10721;SDS011;5412;59.450;18.124;2023-04-25T01:46:39;3.83;;;2.53;;
10721;SDS011;5412;59.450;18.124;2023-04-25T01:49:04;5.13;;;2.80;;
10721;SDS011;5412;59.450;18.124;2023-04-25T01:51:30;3.10;;;2.37;;
10721;SDS011;5412;59.450;18.124;2023-04-25T01:53:56;3.87;;;2.80;;
10721;SDS011;5412;59.450;18.124;2023-04-25T01:56:22;4.73;;;2.70;;
10721;SDS011;5412;59.450;18.124;2023-04-25T01:58:48;3.67;;;2.50;;
10721;SDS011;5412;59.450;18.124;2023-04-25T02:01:14;2.87;;;2.57;;
10721;SDS011;5412;59.450;18.124;2023-04-25T02:03:40;3.00;;;2.30;;
10721;SDS011;5412;59.450;18.124;2023-04-25T02:06:06;3.63;;;2.30;;
10721;SDS011;5412;59.450;18.124;2023-04-25T02:08:31;2.57;;;2.37;;
10721;SDS011;5412;59.450;18.124;2023-04-25T02:10:57;3.20;;;2.30;;
10721;SDS011;5412;59.450;18.124;2023-04-25T02:13:23;2.57;;;2.37;;
10721;SDS011;5412;59.450;18.124;2023-04-25T02:15:48;3.17;;;2.23;;
10721;SDS011;5412;59.450;18.124;2023-04-25T02:18:14;2.40;;;1.87;;
10721;SDS011;5412;59.450;18.124;2023-04-25T02:20:43;5.20;;;2.30;;
10721;SDS011;5412;59.450;18.124;2023-04-25T02:23:09;2.00;;;1.80;;
10721;SDS011;5412;59.450;18.124;2023-04-25T02:25:35;2.83;;;1.87;;
10721;SDS011;5412;59.450;18.124;2023-04-25T02:28:00;4.07;;;1.80;;
10721;SDS011;5412;59.450;18.124;2023-04-25T02:30:26;2.27;;;1.67;;
10721;SDS011;5412;59.450;18.124;2023-04-25T02:32:52;2.27;;;1.90;;
10721;SDS011;5412;59.450;18.124;2023-04-25T02:35:18;2.17;;;1.97;;
10721;SDS011;5412;59.450;18.124;2023-04-25T02:37:43;1.47;;;1.37;;
10721;SDS011;5412;59.450;18.124;2023-04-25T02:40:09;1.50;;;1.40;;
10721;SDS011;5412;59.450;18.124;2023-04-25T02:42:35;1.47;;;1.33;;
10721;SDS011;5412;59.450;18.124;2023-04-25T02:45:01;1.40;;;1.30;;
10721;SDS011;5412;59.450;18.124;2023-04-25T02:47:28;1.47;;;1.37;;
10721;SDS011;5412;59.450;18.124;2023-04-25T02:49:54;1.50;;;1.40;;
10721;SDS011;5412;59.450;18.124;2023-04-25T02:52:19;2.17;;;1.23;;
10721;SDS011;5412;59.450;18.124;2023-04-25T02:54:46;1.30;;;1.20;;
10721;SDS011;5412;59.450;18.124;2023-04-25T02:57:12;1.10;;;1.00;;
10721;SDS011;5412;59.450;18.124;2023-04-25T02:59:37;1.50;;;1.20;;
10721;SDS011;5412;59.450;18.124;2023-04-25T03:02:03;1.27;;;1.17;;
10721;SDS011;5412;59.450;18.124;2023-04-25T03:04:29;1.00;;;1.00;;
10721;SDS011;5412;59.450;18.124;2023-04-25T03:06:55;1.20;;;1.10;;
10721;SDS011;5412;59.450;18.124;2023-04-25T03:09:20;0.90;;;0.90;;
10721;SDS011;5412;59.450;18.124;2023-04-25T03:11:46;2.13;;;1.10;;
10721;SDS011;5412;59.450;18.124;2023-04-25T03:14:12;1.23;;;1.13;;
10721;SDS011;5412;59.450;18.124;2023-04-25T03:16:39;1.03;;;0.93;;
10721;SDS011;5412;59.450;18.124;2023-04-25T03:19:04;1.93;;;0.80;;
10721;SDS011;5412;59.450;18.124;2023-04-25T03:21:34;0.80;;;0.80;;
10721;SDS011;5412;59.450;18.124;2023-04-25T03:24:01;1.10;;;1.00;;
10721;SDS011;5412;59.450;18.124;2023-04-25T03:26:28;1.63;;;1.00;;
10721;SDS011;5412;59.450;18.124;2023-04-25T03:28:54;0.80;;;0.80;;
10721;SDS011;5412;59.450;18.124;2023-04-25T03:31:19;0.80;;;0.80;;
10721;SDS011;5412;59.450;18.124;2023-04-25T03:33:45;0.50;;;0.50;;
10721;SDS011;5412;59.450;18.124;2023-04-25T03:36:11;2.10;;;0.83;;
10721;SDS011;5412;59.450;18.124;2023-04-25T03:38:37;0.60;;;0.60;;
10721;SDS011;5412;59.450;18.124;2023-04-25T03:41:03;0.60;;;0.60;;
10721;SDS011;5412;59.450;18.124;2023-04-25T03:43:28;0.60;;;0.60;;
10721;SDS011;5412;59.450;18.124;2023-04-25T03:45:54;0.70;;;0.70;;
10721;SDS011;5412;59.450;18.124;2023-04-25T03:48:20;0.53;;;0.53;;
10721;SDS011;5412;59.450;18.124;2023-04-25T03:50:52;0.60;;;0.60;;
10721;SDS011;5412;59.450;18.124;2023-04-25T03:53:18;0.60;;;0.60;;
10721;SDS011;5412;59.450;18.124;2023-04-25T03:55:44;0.60;;;0.60;;
10721;SDS011;5412;59.450;18.124;2023-04-25T03:58:10;2.20;;;0.67;;
10721;SDS011;5412;59.450;18.124;2023-04-25T04:00:36;0.73;;;0.73;;
10721;SDS011;5412;59.450;18.124;2023-04-25T04:03:02;0.70;;;0.70;;
10721;SDS011;5412;59.450;18.124;2023-04-25T04:05:27;0.77;;;0.77;;
10721;SDS011;5412;59.450;18.124;2023-04-25T04:07:53;0.70;;;0.70;;
10721;SDS011;5412;59.450;18.124;2023-04-25T04:10:20;0.70;;;0.70;;
10721;SDS011;5412;59.450;18.124;2023-04-25T04:12:46;1.43;;;0.83;;
10721;SDS011;5412;59.450;18.124;2023-04-25T04:15:12;1.17;;;0.60;;
10721;SDS011;5412;59.450;18.124;2023-04-25T04:17:38;0.80;;;0.80;;
10721;SDS011;5412;59.450;18.124;2023-04-25T04:20:05;1.63;;;0.87;;
10721;SDS011;5412;59.450;18.124;2023-04-25T04:22:32;0.83;;;0.83;;
10721;SDS011;5412;59.450;18.124;2023-04-25T04:24:58;1.10;;;1.00;;
10721;SDS011;5412;59.450;18.124;2023-04-25T04:27:24;1.10;;;1.00;;
10721;SDS011;5412;59.450;18.124;2023-04-25T04:29:50;1.80;;;1.10;;
10721;SDS011;5412;59.450;18.124;2023-04-25T04:32:17;1.47;;;1.37;;
10721;SDS011;5412;59.450;18.124;2023-04-25T04:34:43;1.20;;;1.10;;
10721;SDS011;5412;59.450;18.124;2023-04-25T04:37:09;1.40;;;1.30;;
10721;SDS011;5412;59.450;18.124;2023-04-25T04:39:38;2.53;;;1.20;;
10721;SDS011;5412;59.450;18.124;2023-04-25T04:42:03;1.30;;;1.20;;
10721;SDS011;5412;59.450;18.124;2023-04-25T04:44:30;1.47;;;1.37;;
10721;SDS011;5412;59.450;18.124;2023-04-25T04:46:59;1.53;;;1.10;;
10721;SDS011;5412;59.450;18.124;2023-04-25T04:49:25;1.30;;;1.20;;
10721;SDS011;5412;59.450;18.124;2023-04-25T04:51:51;3.70;;;1.60;;
10721;SDS011;5412;59.450;18.124;2023-04-25T04:54:17;4.87;;;1.57;;
10721;SDS011;5412;59.450;18.124;2023-04-25T04:56:43;4.20;;;2.03;;
10721;SDS011;5412;59.450;18.124;2023-04-25T04:59:09;5.13;;;1.83;;
10721;SDS011;5412;59.450;18.124;2023-04-25T05:01:35;2.67;;;1.47;;
10721;SDS011;5412;59.450;18.124;2023-04-25T05:04:01;1.50;;;1.40;;
10721;SDS011;5412;59.450;18.124;2023-04-25T05:06:28;4.87;;;1.73;;
10721;SDS011;5412;59.450;18.124;2023-04-25T05:08:54;3.17;;;1.73;;
10721;SDS011;5412;59.450;18.124;2023-04-25T05:11:21;5.80;;;1.80;;
10721;SDS011;5412;59.450;18.124;2023-04-25T05:13:49;2.53;;;1.67;;
10721;SDS011;5412;59.450;18.124;2023-04-25T05:16:16;2.23;;;1.90;;
10721;SDS011;5412;59.450;18.124;2023-04-25T05:18:41;2.10;;;1.90;;
10721;SDS011;5412;59.450;18.124;2023-04-25T05:21:07;4.20;;;1.83;;
10721;SDS011;5412;59.450;18.124;2023-04-25T05:23:33;2.33;;;1.83;;
10721;SDS011;5412;59.450;18.124;2023-04-25T05:25:59;3.93;;;2.03;;
10721;SDS011;5412;59.450;18.124;2023-04-25T05:28:24;5.73;;;2.00;;
10721;SDS011;5412;59.450;18.124;2023-04-25T05:30:50;2.73;;;2.13;;
10721;SDS011;5412;59.450;18.124;2023-04-25T05:33:17;2.63;;;2.20;;
10721;SDS011;5412;59.450;18.124;2023-04-25T05:35:43;3.47;;;2.43;;
10721;SDS011;5412;59.450;18.124;2023-04-25T05:38:09;3.00;;;2.30;;
10721;SDS011;5412;59.450;18.124;2023-04-25T05:40:35;2.73;;;2.20;;
10721;SDS011;5412;59.450;18.124;2023-04-25T05:43:01;5.50;;;2.27;;
10721;SDS011;5412;59.450;18.124;2023-04-25T05:45:26;4.40;;;2.37;;
10721;SDS011;5412;59.450;18.124;2023-04-25T05:47:52;3.00;;;2.53;;
10721;SDS011;5412;59.450;18.124;2023-04-25T05:50:18;6.50;;;2.50;;
10721;SDS011;5412;59.450;18.124;2023-04-25T05:52:44;3.30;;;2.50;;
10721;SDS011;5412;59.450;18.124;2023-04-25T05:55:09;8.37;;;2.50;;
10721;SDS011;5412;59.450;18.124;2023-04-25T05:57:35;3.07;;;2.20;;
10721;SDS011;5412;59.450;18.124;2023-04-25T06:00:01;2.87;;;1.90;;
10721;SDS011;5412;59.450;18.124;2023-04-25T06:02:28;2.17;;;1.90;;
10721;SDS011;5412;59.450;18.124;2023-04-25T06:04:53;2.23;;;2.03;;
10721;SDS011;5412;59.450;18.124;2023-04-25T06:07:19;2.53;;;1.63;;
10721;SDS011;5412;59.450;18.124;2023-04-25T06:09:45;6.43;;;2.00;;
10721;SDS011;5412;59.450;18.124;2023-04-25T06:12:11;2.83;;;1.90;;
10721;SDS011;5412;59.450;18.124;2023-04-25T06:14:37;2.97;;;1.80;;
10721;SDS011;5412;59.450;18.124;2023-04-25T06:17:03;2.33;;;1.80;;
10721;SDS011;5412;59.450;18.124;2023-04-25T06:19:33;3.53;;;1.97;;
10721;SDS011;5412;59.450;18.124;2023-04-25T06:22:00;3.23;;;2.20;;
10721;SDS011;5412;59.450;18.124;2023-04-25T06:24:26;3.40;;;1.90;;
10721;SDS011;5412;59.450;18.124;2023-04-25T06:26:52;2.80;;;2.17;;
10721;SDS011;5412;59.450;18.124;2023-04-25T06:29:18;2.13;;;1.90;;
10721;SDS011;5412;59.450;18.124;2023-04-25T06:31:44;3.83;;;2.00;;
10721;SDS011;5412;59.450;18.124;2023-04-25T06:34:09;4.40;;;1.83;;
10721;SDS011;5412;59.450;18.124;2023-04-25T06:36:35;2.20;;;2.00;;
10721;SDS011;5412;59.450;18.124;2023-04-25T06:39:02;1.87;;;1.67;;
10721;SDS011;5412;59.450;18.124;2023-04-25T06:41:27;3.03;;;1.67;;
10721;SDS011;5412;59.450;18.124;2023-04-25T06:43:53;1.60;;;1.33;;
10721;SDS011;5412;59.450;18.124;2023-04-25T06:46:19;2.43;;;1.67;;
10721;SDS011;5412;59.450;18.124;2023-04-25T06:48:45;2.17;;;1.90;;
10721;SDS011;5412;59.450;18.124;2023-04-25T06:51:10;2.17;;;1.80;;
10721;SDS011;5412;59.450;18.124;2023-04-25T06:53:38;1.70;;;1.60;;
10721;SDS011;5412;59.450;18.124;2023-04-25T06:56:04;4.50;;;1.63;;
10721;SDS011;5412;59.450;18.124;2023-04-25T06:58:30;3.57;;;2.20;;
10721;SDS011;5412;59.450;18.124;2023-04-25T07:00:56;2.13;;;1.83;;
10721;SDS011;5412;59.450;18.124;2023-04-25T07:03:21;1.80;;;1.60;;
10721;SDS011;5412;59.450;18.124;2023-04-25T07:05:47;4.73;;;1.47;;
10721;SDS011;5412;59.450;18.124;2023-04-25T07:08:13;2.90;;;1.53;;
10721;SDS011;5412;59.450;18.124;2023-04-25T07:10:38;3.40;;;1.80;;
10721;SDS011;5412;59.450;18.124;2023-04-25T07:13:05;3.23;;;1.40;;
10721;SDS011;5412;59.450;18.124;2023-04-25T07:15:30;2.20;;;1.50;;
10721;SDS011;5412;59.450;18.124;2023-04-25T07:17:56;1.60;;;1.40;;
10721;SDS011;5412;59.450;18.124;2023-04-25T07:20:22;1.67;;;1.23;;
10721;SDS011;5412;59.450;18.124;2023-04-25T07:22:48;2.37;;;1.50;;
10721;SDS011;5412;59.450;18.124;2023-04-25T07:25:14;2.33;;;1.80;;
10721;SDS011;5412;59.450;18.124;2023-04-25T07:27:41;1.67;;;1.40;;
10721;SDS011;5412;59.450;18.124;2023-04-25T07:30:07;1.80;;;1.60;;
10721;SDS011;5412;59.450;18.124;2023-04-25T07:32:33;3.53;;;1.40;;
10721;SDS011;5412;59.450;18.124;2023-04-25T07:34:59;2.90;;;1.80;;
10721;SDS011;5412;59.450;18.124;2023-04-25T07:37:24;2.30;;;1.33;;
10721;SDS011;5412;59.450;18.124;2023-04-25T07:39:51;1.77;;;1.30;;
10721;SDS011;5412;59.450;18.124;2023-04-25T07:42:17;2.20;;;1.60;;
10721;SDS011;5412;59.450;18.124;2023-04-25T07:44:42;1.60;;;1.50;;
10721;SDS011;5412;59.450;18.124;2023-04-25T07:47:08;2.80;;;1.30;;
10721;SDS011;5412;59.450;18.124;2023-04-25T07:49:35;2.77;;;1.80;;
10721;SDS011;5412;59.450;18.124;2023-04-25T07:52:02;2.17;;;1.40;;
10721;SDS011;5412;59.450;18.124;2023-04-25T07:54:30;2.23;;;1.67;;
10721;SDS011;5412;59.450;18.124;2023-04-25T07:56:56;1.57;;;1.47;;
10721;SDS011;5412;59.450;18.124;2023-04-25T07:59:21;1.73;;;1.60;;
10721;SDS011;5412;59.450;18.124;2023-04-25T08:01:47;1.40;;;1.30;;
10721;SDS011;5412;59.450;18.124;2023-04-25T08:04:13;2.37;;;1.73;;
10721;SDS011;5412;59.450;18.124;2023-04-25T08:06:39;2.07;;;1.80;;
10721;SDS011;5412;59.450;18.124;2023-04-25T08:09:05;6.30;;;1.83;;
10721;SDS011;5412;59.450;18.124;2023-04-25T08:11:32;2.27;;;2.00;;
10721;SDS011;5412;59.450;18.124;2023-04-25T08:13:58;2.13;;;1.77;;
10721;SDS011;5412;59.450;18.124;2023-04-25T08:16:24;3.10;;;1.87;;
10721;SDS011;5412;59.450;18.124;2023-04-25T08:18:50;1.90;;;1.63;;
10721;SDS011;5412;59.450;18.124;2023-04-25T08:21:15;1.85;;;1.70;;
10721;SDS011;5412;59.450;18.124;2023-04-25T08:23:41;5.50;;;2.10;;
10721;SDS011;5412;59.450;18.124;2023-04-25T08:26:07;2.70;;;1.85;;
10721;SDS011;5412;59.450;18.124;2023-04-25T08:28:33;4.17;;;2.50;;
10721;SDS011;5412;59.450;18.124;2023-04-25T08:30:59;2.70;;;2.22;;
10721;SDS011;5412;59.450;18.124;2023-04-25T08:33:24;2.60;;;2.00;;
10721;SDS011;5412;59.450;18.124;2023-04-25T08:35:50;3.13;;;2.28;;
10721;SDS011;5412;59.450;18.124;2023-04-25T08:38:17;4.30;;;2.20;;
10721;SDS011;5412;59.450;18.124;2023-04-25T08:40:43;2.20;;;2.00;;
10721;SDS011;5412;59.450;18.124;2023-04-25T08:43:09;2.75;;;2.17;;
10721;SDS011;5412;59.450;18.124;2023-04-25T08:45:40;2.65;;;1.92;;
10721;SDS011;5412;59.450;18.124;2023-04-25T08:48:07;2.35;;;2.05;;
10721;SDS011;5412;59.450;18.124;2023-04-25T08:50:40;2.65;;;2.45;;
10721;SDS011;5412;59.450;18.124;2023-04-25T08:53:14;2.92;;;2.63;;
10721;SDS011;5412;59.450;18.124;2023-04-25T08:55:44;3.75;;;2.17;;
10721;SDS011;5412;59.450;18.124;2023-04-25T08:58:11;7.38;;;2.58;;
10721;SDS011;5412;59.450;18.124;2023-04-25T09:00:38;3.47;;;2.50;;
10721;SDS011;5412;59.450;18.124;2023-04-25T09:03:04;3.25;;;2.28;;
10721;SDS011;5412;59.450;18.124;2023-04-25T09:05:32;3.83;;;2.80;;
10721;SDS011;5412;59.450;18.124;2023-04-25T09:07:58;3.80;;;2.30;;
10721;SDS011;5412;59.450;18.124;2023-04-25T09:10:25;3.10;;;2.60;;
10721;SDS011;5412;59.450;18.124;2023-04-25T09:13:13;3.88;;;2.42;;
10721;SDS011;5412;59.450;18.124;2023-04-25T09:15:52;3.72;;;2.28;;
10721;SDS011;5412;59.450;18.124;2023-04-25T09:20:49;4.30;;;2.95;;
10721;SDS011;5412;59.450;18.124;2023-04-25T09:23:14;3.50;;;2.80;;
10721;SDS011;5412;59.450;18.124;2023-04-25T09:25:40;3.92;;;3.20;;
10721;SDS011;5412;59.450;18.124;2023-04-25T09:28:08;4.88;;;3.00;;
10721;SDS011;5412;59.450;18.124;2023-04-25T09:30:35;4.00;;;2.90;;
10721;SDS011;5412;59.450;18.124;2023-04-25T09:33:05;3.72;;;2.85;;
10721;SDS011;5412;59.450;18.124;2023-04-25T09:35:44;4.30;;;3.15;;
10721;SDS011;5412;59.450;18.124;2023-04-25T09:38:11;4.15;;;3.35;;
10721;SDS011;5412;59.450;18.124;2023-04-25T09:40:45;7.38;;;3.53;;
10721;SDS011;5412;59.450;18.124;2023-04-25T09:43:23;3.38;;;3.00;;
10721;SDS011;5412;59.450;18.124;2023-04-25T09:45:51;3.97;;;3.35;;
10721;SDS011;5412;59.450;18.124;2023-04-25T09:48:19;3.88;;;3.33;;
10721;SDS011;5412;59.450;18.124;2023-04-25T09:53:31;3.60;;;3.22;;
10721;SDS011;5412;59.450;18.124;2023-04-25T09:56:07;5.68;;;3.55;;
10721;SDS011;5412;59.450;18.124;2023-04-25T09:58:35;4.57;;;3.50;;
10721;SDS011;5412;59.450;18.124;2023-04-25T10:01:03;4.10;;;3.40;;
10721;SDS011;5412;59.450;18.124;2023-04-25T10:03:31;9.00;;;3.78;;
10721;SDS011;5412;59.450;18.124;2023-04-25T10:05:59;4.60;;;3.85;;
10721;SDS011;5412;59.450;18.124;2023-04-25T10:08:34;5.65;;;3.78;;
10721;SDS011;5412;59.450;18.124;2023-04-25T10:11:05;4.05;;;3.65;;
10721;SDS011;5412;59.450;18.124;2023-04-25T10:13:33;8.35;;;4.15;;
10721;SDS011;5412;59.450;18.124;2023-04-25T10:16:03;6.07;;;4.03;;
10721;SDS011;5412;59.450;18.124;2023-04-25T10:18:30;9.23;;;4.53;;
10721;SDS011;5412;59.450;18.124;2023-04-25T10:20:58;6.30;;;4.45;;
10721;SDS011;5412;59.450;18.124;2023-04-25T10:23:28;5.70;;;4.28;;
10721;SDS011;5412;59.450;18.124;2023-04-25T10:25:55;4.95;;;3.88;;
10721;SDS011;5412;59.450;18.124;2023-04-25T10:28:21;6.53;;;4.40;;
10721;SDS011;5412;59.450;18.124;2023-04-25T10:31:00;7.30;;;4.63;;
10721;SDS011;5412;59.450;18.124;2023-04-25T10:33:37;4.93;;;3.50;;
10721;SDS011;5412;59.450;18.124;2023-04-25T10:36:08;6.32;;;3.95;;
10721;SDS011;5412;59.450;18.124;2023-04-25T10:38:34;6.45;;;4.45;;
10721;SDS011;5412;59.450;18.124;2023-04-25T10:41:03;5.82;;;4.15;;
10721;SDS011;5412;59.450;18.124;2023-04-25T10:43:36;8.38;;;5.00;;
10721;SDS011;5412;59.450;18.124;2023-04-25T10:48:52;5.93;;;4.53;;
10721;SDS011;5412;59.450;18.124;2023-04-25T10:56:30;7.10;;;4.72;;
10721;SDS011;5412;59.450;18.124;2023-04-25T11:01:43;6.38;;;4.72;;
10721;SDS011;5412;59.450;18.124;2023-04-25T11:04:23;5.68;;;4.50;;
10721;SDS011;5412;59.450;18.124;2023-04-25T11:09:20;7.85;;;5.05;;
10721;SDS011;5412;59.450;18.124;2023-04-25T11:11:55;7.78;;;5.20;;
10721;SDS011;5412;59.450;18.124;2023-04-25T11:14:22;6.78;;;5.07;;
10721;SDS011;5412;59.450;18.124;2023-04-25T11:16:54;6.95;;;5.50;;
10721;SDS011;5412;59.450;18.124;2023-04-25T11:19:21;9.15;;;5.45;;
10721;SDS011;5412;59.450;18.124;2023-04-25T11:21:47;8.35;;;5.93;;
10721;SDS011;5412;59.450;18.124;2023-04-25T11:24:13;7.75;;;6.18;;
10721;SDS011;5412;59.450;18.124;2023-04-25T11:26:42;10.30;;;5.40;;
10721;SDS011;5412;59.450;18.124;2023-04-25T11:29:08;7.75;;;5.32;;
10721;SDS011;5412;59.450;18.124;2023-04-25T11:31:34;13.20;;;6.15;;
10721;SDS011;5412;59.450;18.124;2023-04-25T11:34:00;5.90;;;5.28;;
10721;SDS011;5412;59.450;18.124;2023-04-25T11:36:26;6.88;;;5.68;;
10721;SDS011;5412;59.450;18.124;2023-04-25T11:38:52;7.10;;;5.93;;
10721;SDS011;5412;59.450;18.124;2023-04-25T11:41:19;6.40;;;5.80;;
10721;SDS011;5412;59.450;18.124;2023-04-25T11:43:47;6.80;;;5.63;;
10721;SDS011;5412;59.450;18.124;2023-04-25T11:46:14;13.77;;;6.22;;
10721;SDS011;5412;59.450;18.124;2023-04-25T11:48:44;7.30;;;6.05;;
10721;SDS011;5412;59.450;18.124;2023-04-25T11:51:11;9.50;;;5.57;;
10721;SDS011;5412;59.450;18.124;2023-04-25T11:53:40;7.70;;;6.00;;
10721;SDS011;5412;59.450;18.124;2023-04-25T11:56:10;8.48;;;6.35;;
10721;SDS011;5412;59.450;18.124;2023-04-25T12:01:29;9.88;;;6.57;;
10721;SDS011;5412;59.450;18.124;2023-04-25T12:06:55;8.77;;;6.07;;
10721;SDS011;5412;59.450;18.124;2023-04-25T12:09:27;7.15;;;5.90;;
10721;SDS011;5412;59.450;18.124;2023-04-25T12:11:57;8.13;;;6.70;;
10721;SDS011;5412;59.450;18.124;2023-04-25T12:14:25;6.55;;;5.75;;
10721;SDS011;5412;59.450;18.124;2023-04-25T12:16:51;9.15;;;6.47;;
10721;SDS011;5412;59.450;18.124;2023-04-25T12:19:19;6.55;;;5.85;;
10721;SDS011;5412;59.450;18.124;2023-04-25T12:21:46;10.82;;;6.82;;
10721;SDS011;5412;59.450;18.124;2023-04-25T12:24:13;7.90;;;6.50;;
10721;SDS011;5412;59.450;18.124;2023-04-25T12:29:24;10.23;;;6.80;;
10721;SDS011;5412;59.450;18.124;2023-04-25T12:31:52;8.80;;;7.00;;
10721;SDS011;5412;59.450;18.124;2023-04-25T12:34:20;8.65;;;6.53;;
10721;SDS011;5412;59.450;18.124;2023-04-25T12:36:46;8.85;;;5.95;;
10721;SDS011;5412;59.450;18.124;2023-04-25T12:41:42;6.88;;;6.00;;
10721;SDS011;5412;59.450;18.124;2023-04-25T12:44:09;7.85;;;6.38;;
10721;SDS011;5412;59.450;18.124;2023-04-25T12:46:35;14.52;;;6.85;;
10721;SDS011;5412;59.450;18.124;2023-04-25T12:49:02;12.18;;;5.65;;
10721;SDS011;5412;59.450;18.124;2023-04-25T12:51:28;6.70;;;5.78;;
10721;SDS011;5412;59.450;18.124;2023-04-25T12:53:54;6.90;;;5.50;;
10721;SDS011;5412;59.450;18.124;2023-04-25T12:56:20;9.35;;;5.53;;
10721;SDS011;5412;59.450;18.124;2023-04-25T12:58:46;9.10;;;5.72;;
10721;SDS011;5412;59.450;18.124;2023-04-25T13:01:13;6.22;;;5.38;;
10721;SDS011;5412;59.450;18.124;2023-04-25T13:03:39;12.63;;;6.15;;
10721;SDS011;5412;59.450;18.124;2023-04-25T13:06:05;8.82;;;5.18;;
10721;SDS011;5412;59.450;18.124;2023-04-25T13:08:32;8.50;;;6.25;;
10721;SDS011;5412;59.450;18.124;2023-04-25T13:10:58;8.32;;;6.97;;
10721;SDS011;5412;59.450;18.124;2023-04-25T13:13:23;8.98;;;6.93;;
10721;SDS011;5412;59.450;18.124;2023-04-25T13:15:49;8.90;;;7.05;;
10721;SDS011;5412;59.450;18.124;2023-04-25T13:18:15;8.02;;;7.15;;
10721;SDS011;5412;59.450;18.124;2023-04-25T13:20:41;10.10;;;6.63;;
10721;SDS011;5412;59.450;18.124;2023-04-25T13:23:06;8.57;;;6.95;;
10721;SDS011;5412;59.450;18.124;2023-04-25T13:25:32;9.55;;;6.72;;
10721;SDS011;5412;59.450;18.124;2023-04-25T13:27:58;12.48;;;8.15;;
10721;SDS011;5412;59.450;18.124;2023-04-25T13:30:24;9.65;;;7.13;;
10721;SDS011;5412;59.450;18.124;2023-04-25T13:32:50;13.48;;;6.28;;
10721;SDS011;5412;59.450;18.124;2023-04-25T13:35:17;12.40;;;8.63;;
10721;SDS011;5412;59.450;18.124;2023-04-25T13:37:42;16.02;;;6.68;;
10721;SDS011;5412;59.450;18.124;2023-04-25T13:40:09;9.30;;;6.10;;
10721;SDS011;5412;59.450;18.124;2023-04-25T13:42:36;6.43;;;5.82;;
10721;SDS011;5412;59.450;18.124;2023-04-25T13:45:02;9.60;;;6.85;;
10721;SDS011;5412;59.450;18.124;2023-04-25T13:47:29;9.73;;;6.93;;
10721;SDS011;5412;59.450;18.124;2023-04-25T13:49:55;17.75;;;6.85;;
10721;SDS011;5412;59.450;18.124;2023-04-25T13:52:21;15.13;;;7.60;;
10721;SDS011;5412;59.450;18.124;2023-04-25T13:54:49;13.10;;;7.13;;
10721;SDS011;5412;59.450;18.124;2023-04-25T13:57:15;8.63;;;6.97;;
10721;SDS011;5412;59.450;18.124;2023-04-25T13:59:41;11.52;;;6.45;;
10721;SDS011;5412;59.450;18.124;2023-04-25T14:02:07;15.45;;;7.10;;
10721;SDS011;5412;59.450;18.124;2023-04-25T14:04:33;8.73;;;6.80;;
10721;SDS011;5412;59.450;18.124;2023-04-25T14:06:59;9.55;;;7.10;;
10721;SDS011;5412;59.450;18.124;2023-04-25T14:09:25;12.50;;;7.30;;
10721;SDS011;5412;59.450;18.124;2023-04-25T14:11:52;11.65;;;6.68;;
10721;SDS011;5412;59.450;18.124;2023-04-25T14:14:18;11.75;;;7.10;;
10721;SDS011;5412;59.450;18.124;2023-04-25T14:16:46;14.88;;;7.38;;
10721;SDS011;5412;59.450;18.124;2023-04-25T14:19:17;13.82;;;6.88;;
10721;SDS011;5412;59.450;18.124;2023-04-25T14:21:43;15.48;;;7.70;;
10721;SDS011;5412;59.450;18.124;2023-04-25T14:24:09;10.63;;;7.13;;
10721;SDS011;5412;59.450;18.124;2023-04-25T14:26:36;18.10;;;7.60;;
10721;SDS011;5412;59.450;18.124;2023-04-25T14:29:02;10.07;;;7.55;;
10721;SDS011;5412;59.450;18.124;2023-04-25T14:31:30;10.73;;;7.70;;
10721;SDS011;5412;59.450;18.124;2023-04-25T14:33:56;10.40;;;7.25;;
10721;SDS011;5412;59.450;18.124;2023-04-25T14:36:22;7.97;;;7.03;;
10721;SDS011;5412;59.450;18.124;2023-04-25T14:38:48;12.60;;;7.63;;
10721;SDS011;5412;59.450;18.124;2023-04-25T14:41:14;8.82;;;7.43;;
10721;SDS011;5412;59.450;18.124;2023-04-25T14:43:40;12.10;;;7.97;;
10721;SDS011;5412;59.450;18.124;2023-04-25T14:46:06;10.35;;;7.00;;
10721;SDS011;5412;59.450;18.124;2023-04-25T14:48:32;8.35;;;7.18;;
10721;SDS011;5412;59.450;18.124;2023-04-25T14:50:59;10.00;;;6.93;;
10721;SDS011;5412;59.450;18.124;2023-04-25T14:53:25;12.00;;;7.40;;
10721;SDS011;5412;59.450;18.124;2023-04-25T14:55:52;9.38;;;7.30;;
10721;SDS011;5412;59.450;18.124;2023-04-25T14:58:18;8.77;;;6.30;;
10721;SDS011;5412;59.450;18.124;2023-04-25T15:00:45;8.50;;;5.95;;
10721;SDS011;5412;59.450;18.124;2023-04-25T15:03:11;8.77;;;6.43;;
10721;SDS011;5412;59.450;18.124;2023-04-25T15:05:38;10.35;;;7.85;;
10721;SDS011;5412;59.450;18.124;2023-04-25T15:08:05;8.45;;;6.18;;
10721;SDS011;5412;59.450;18.124;2023-04-25T15:10:31;11.20;;;6.28;;
10721;SDS011;5412;59.450;18.124;2023-04-25T15:12:57;8.70;;;5.95;;